sensor_id;sensor_type;location;lat;lon;timestamp;pressure;altitude;pressure_sealevel;temperature;humidity
21431;BME280;10876;49.038;10.608;2023-04-22T00:00:29;98486.25;;;7.48;100.00
21431;BME280;10876;49.038;10.608;2023-04-22T00:02:57;98490.84;;;7.53;100.00
21431;BME280;10876;49.038;10.608;2023-04-22T00:05:26;98489.41;;;7.55;100.00
21431;BME280;10876;49.038;10.608;2023-04-22T00:07:53;98495.25;;;7.49;100.00
21431;BME280;10876;49.038;10.608;2023-04-22T00:10:20;98497.31;;;7.57;100.00
21431;BME280;10876;49.038;10.608;2023-04-22T00:12:47;98502.41;;;7.44;100.00
21431;BME280;10876;49.038;10.608;2023-04-22T00:15:14;98503.94;;;7.51;100.00
21431;BME280;10876;49.038;10.608;2023-04-22T00:17:44;98498.03;;;7.62;100.00
21431;BME280;10876;49.038;10.608;2023-04-22T00:20:11;98498.69;;;7.73;100.00
21431;BME280;10876;49.038;10.608;2023-04-22T00:22:38;98495.72;;;7.70;100.00
21431;BME280;10876;49.038;10.608;2023-04-22T00:25:05;98494.81;;;7.41;100.00
21431;BME280;10876;49.038;10.608;2023-04-22T00:27:32;98479.00;;;7.25;100.00
21431;BME280;10876;49.038;10.608;2023-04-22T00:30:00;98475.44;;;7.43;100.00
21431;BME280;10876;49.038;10.608;2023-04-22T00:32:26;98482.31;;;7.21;100.00
21431;BME280;10876;49.038;10.608;2023-04-22T00:34:55;98474.13;;;7.21;100.00
21431;BME280;10876;49.038;10.608;2023-04-22T00:37:22;98467.84;;;7.21;100.00
21431;BME280;10876;49.038;10.608;2023-04-22T00:39:50;98470.50;;;7.26;100.00
21431;BME280;10876;49.038;10.608;2023-04-22T00:42:17;98468.44;;;7.18;100.00
21431;BME280;10876;49.038;10.608;2023-04-22T00:44:45;98469.63;;;7.31;100.00
21431;BME280;10876;49.038;10.608;2023-04-22T00:47:12;98466.97;;;7.44;100.00
21431;BME280;10876;49.038;10.608;2023-04-22T00:49:39;98449.81;;;7.44;100.00
21431;BME280;10876;49.038;10.608;2023-04-22T00:52:08;98444.19;;;7.54;100.00
21431;BME280;10876;49.038;10.608;2023-04-22T00:54:35;98449.50;;;7.64;100.00
21431;BME280;10876;49.038;10.608;2023-04-22T00:57:02;98431.44;;;7.50;100.00
21431;BME280;10876;49.038;10.608;2023-04-22T00:59:31;98418.06;;;7.53;100.00
21431;BME280;10876;49.038;10.608;2023-04-22T01:01:59;98419.75;;;7.49;100.00
21431;BME280;10876;49.038;10.608;2023-04-22T01:04:26;98419.53;;;7.45;100.00
21431;BME280;10876;49.038;10.608;2023-04-22T01:06:53;98419.13;;;7.38;100.00
21431;BME280;10876;49.038;10.608;2023-04-22T01:09:22;98409.41;;;7.32;100.00
21431;BME280;10876;49.038;10.608;2023-04-22T01:11:49;98413.28;;;7.45;100.00
21431;BME280;10876;49.038;10.608;2023-04-22T01:14:16;98408.97;;;7.25;100.00
21431;BME280;10876;49.038;10.608;2023-04-22T01:16:44;98410.00;;;7.29;100.00
21431;BME280;10876;49.038;10.608;2023-04-22T01:19:11;98408.00;;;7.35;100.00
21431;BME280;10876;49.038;10.608;2023-04-22T01:21:38;98402.06;;;7.14;100.00
21431;BME280;10876;49.038;10.608;2023-04-22T01:24:08;98407.97;;;7.02;100.00
21431;BME280;10876;49.038;10.608;2023-04-22T01:26:35;98397.00;;;7.07;100.00
21431;BME280;10876;49.038;10.608;2023-04-22T01:29:04;98396.25;;;7.20;100.00
21431;BME280;10876;49.038;10.608;2023-04-22T01:31:32;98396.41;;;7.10;100.00
21431;BME280;10876;49.038;10.608;2023-04-22T01:33:59;98381.69;;;7.11;100.00
21431;BME280;10876;49.038;10.608;2023-04-22T01:36:27;98375.66;;;7.14;100.00
21431;BME280;10876;49.038;10.608;2023-04-22T01:38:54;98365.19;;;7.21;100.00
21431;BME280;10876;49.038;10.608;2023-04-22T01:41:23;98363.56;;;7.20;100.00
21431;BME280;10876;49.038;10.608;2023-04-22T01:43:52;98377.69;;;7.22;100.00
21431;BME280;10876;49.038;10.608;2023-04-22T01:46:19;98374.28;;;7.31;100.00
21431;BME280;10876;49.038;10.608;2023-04-22T01:48:46;98376.50;;;7.29;100.00
21431;BME280;10876;49.038;10.608;2023-04-22T01:51:16;98372.69;;;7.30;100.00
21431;BME280;10876;49.038;10.608;2023-04-22T01:53:44;98375.91;;;7.32;100.00
21431;BME280;10876;49.038;10.608;2023-04-22T01:56:11;98366.41;;;7.29;100.00
21431;BME280;10876;49.038;10.608;2023-04-22T01:58:40;98361.34;;;7.22;100.00
21431;BME280;10876;49.038;10.608;2023-04-22T02:01:08;98364.69;;;7.19;100.00
21431;BME280;10876;49.038;10.608;2023-04-22T02:03:36;98357.50;;;7.23;100.00
21431;BME280;10876;49.038;10.608;2023-04-22T02:06:03;98353.50;;;7.35;100.00
21431;BME280;10876;49.038;10.608;2023-04-22T02:08:30;98350.72;;;7.40;100.00
21431;BME280;10876;49.038;10.608;2023-04-22T02:10:57;98348.91;;;7.49;100.00
21431;BME280;10876;49.038;10.608;2023-04-22T02:13:25;98350.13;;;7.57;100.00
21431;BME280;10876;49.038;10.608;2023-04-22T02:15:54;98355.69;;;7.65;100.00
21431;BME280;10876;49.038;10.608;2023-04-22T02:18:20;98351.25;;;7.70;100.00
21431;BME280;10876;49.038;10.608;2023-04-22T02:20:48;98358.13;;;7.53;100.00
21431;BME280;10876;49.038;10.608;2023-04-22T02:23:15;98350.44;;;7.55;100.00
21431;BME280;10876;49.038;10.608;2023-04-22T02:28:51;98340.25;;;7.47;100.00
21431;BME280;10876;49.038;10.608;2023-04-22T02:46:12;98332.25;;;7.37;100.00
21431;BME280;10876;49.038;10.608;2023-04-22T02:48:40;98322.75;;;7.34;100.00
21431;BME280;10876;49.038;10.608;2023-04-22T02:51:08;98319.22;;;7.34;100.00
21431;BME280;10876;49.038;10.608;2023-04-22T02:53:35;98317.09;;;7.31;100.00
21431;BME280;10876;49.038;10.608;2023-04-22T02:56:02;98308.69;;;7.13;100.00
21431;BME280;10876;49.038;10.608;2023-04-22T02:58:30;98298.47;;;7.05;100.00
21431;BME280;10876;49.038;10.608;2023-04-22T03:00:57;98301.59;;;6.98;100.00
21431;BME280;10876;49.038;10.608;2023-04-22T03:03:25;98296.34;;;7.02;100.00
21431;BME280;10876;49.038;10.608;2023-04-22T03:05:52;98290.25;;;6.91;100.00
21431;BME280;10876;49.038;10.608;2023-04-22T03:08:19;98285.19;;;6.85;100.00
21431;BME280;10876;49.038;10.608;2023-04-22T03:10:46;98284.59;;;6.88;100.00
21431;BME280;10876;49.038;10.608;2023-04-22T03:13:13;98278.72;;;6.81;100.00
21431;BME280;10876;49.038;10.608;2023-04-22T03:15:40;98273.88;;;6.77;100.00
21431;BME280;10876;49.038;10.608;2023-04-22T03:18:07;98265.09;;;6.81;100.00
21431;BME280;10876;49.038;10.608;2023-04-22T03:20:36;98256.94;;;6.81;100.00
21431;BME280;10876;49.038;10.608;2023-04-22T03:23:03;98259.59;;;6.86;100.00
21431;BME280;10876;49.038;10.608;2023-04-22T03:25:31;98261.78;;;6.84;100.00
21431;BME280;10876;49.038;10.608;2023-04-22T03:27:58;98268.34;;;6.83;100.00
21431;BME280;10876;49.038;10.608;2023-04-22T03:30:25;98267.81;;;6.81;100.00
21431;BME280;10876;49.038;10.608;2023-04-22T03:32:52;98270.06;;;6.79;100.00
21431;BME280;10876;49.038;10.608;2023-04-22T03:35:19;98267.22;;;6.84;100.00
21431;BME280;10876;49.038;10.608;2023-04-22T03:37:47;98258.38;;;6.92;100.00
21431;BME280;10876;49.038;10.608;2023-04-22T03:40:14;98257.78;;;6.95;100.00
21431;BME280;10876;49.038;10.608;2023-04-22T03:42:41;98266.47;;;6.97;100.00
21431;BME280;10876;49.038;10.608;2023-04-22T03:45:09;98258.81;;;6.99;100.00
21431;BME280;10876;49.038;10.608;2023-04-22T03:47:36;98265.28;;;7.03;100.00
21431;BME280;10876;49.038;10.608;2023-04-22T03:50:03;98255.78;;;7.00;100.00
21431;BME280;10876;49.038;10.608;2023-04-22T03:52:31;98267.50;;;7.01;100.00
21431;BME280;10876;49.038;10.608;2023-04-22T03:54:59;98257.19;;;6.98;100.00
21431;BME280;10876;49.038;10.608;2023-04-22T03:57:26;98261.03;;;6.97;100.00
21431;BME280;10876;49.038;10.608;2023-04-22T03:59:53;98262.63;;;6.98;100.00
21431;BME280;10876;49.038;10.608;2023-04-22T04:02:20;98262.63;;;6.98;100.00
21431;BME280;10876;49.038;10.608;2023-04-22T04:04:47;98269.63;;;7.04;100.00
21431;BME280;10876;49.038;10.608;2023-04-22T04:07:14;98265.63;;;7.15;100.00
21431;BME280;10876;49.038;10.608;2023-04-22T04:09:41;98269.34;;;7.19;100.00
21431;BME280;10876;49.038;10.608;2023-04-22T04:12:09;98264.50;;;7.16;100.00
21431;BME280;10876;49.038;10.608;2023-04-22T04:14:36;98265.50;;;7.20;100.00
21431;BME280;10876;49.038;10.608;2023-04-22T04:17:03;98264.06;;;7.09;100.00
21431;BME280;10876;49.038;10.608;2023-04-22T04:19:34;98266.72;;;7.14;100.00
21431;BME280;10876;49.038;10.608;2023-04-22T04:22:01;98259.66;;;7.13;100.00
21431;BME280;10876;49.038;10.608;2023-04-22T04:24:28;98251.56;;;7.08;100.00
21431;BME280;10876;49.038;10.608;2023-04-22T04:26:55;98252.09;;;7.10;100.00
21431;BME280;10876;49.038;10.608;2023-04-22T04:29:23;98244.53;;;7.21;100.00
21431;BME280;10876;49.038;10.608;2023-04-22T04:31:52;98241.44;;;7.28;100.00
21431;BME280;10876;49.038;10.608;2023-04-22T04:34:18;98243.94;;;7.38;100.00
21431;BME280;10876;49.038;10.608;2023-04-22T04:36:45;98250.72;;;7.54;100.00
21431;BME280;10876;49.038;10.608;2023-04-22T04:39:12;98251.63;;;7.91;100.00
21431;BME280;10876;49.038;10.608;2023-04-22T04:41:43;98247.31;;;8.12;100.00
21431;BME280;10876;49.038;10.608;2023-04-22T04:44:10;98250.91;;;8.49;100.00
21431;BME280;10876;49.038;10.608;2023-04-22T04:46:38;98243.69;;;8.98;100.00
21431;BME280;10876;49.038;10.608;2023-04-22T04:49:06;98238.53;;;9.19;100.00
21431;BME280;10876;49.038;10.608;2023-04-22T04:51:37;98241.63;;;9.75;100.00
21431;BME280;10876;49.038;10.608;2023-04-22T04:54:04;98240.78;;;10.84;100.00
21431;BME280;10876;49.038;10.608;2023-04-22T04:56:31;98233.69;;;10.92;100.00
21431;BME280;10876;49.038;10.608;2023-04-22T04:58:58;98221.53;;;11.10;100.00
21431;BME280;10876;49.038;10.608;2023-04-22T05:01:25;98221.75;;;11.05;100.00
21431;BME280;10876;49.038;10.608;2023-04-22T05:03:53;98214.59;;;11.60;100.00
21431;BME280;10876;49.038;10.608;2023-04-22T05:06:20;98220.72;;;11.65;100.00
21431;BME280;10876;49.038;10.608;2023-04-22T05:08:47;98234.03;;;11.46;100.00
21431;BME280;10876;49.038;10.608;2023-04-22T05:11:14;98226.94;;;11.75;100.00
21431;BME280;10876;49.038;10.608;2023-04-22T05:13:41;98222.97;;;12.23;100.00
21431;BME280;10876;49.038;10.608;2023-04-22T05:16:07;98235.09;;;12.22;100.00
21431;BME280;10876;49.038;10.608;2023-04-22T05:18:35;98238.53;;;11.89;100.00
21431;BME280;10876;49.038;10.608;2023-04-22T05:21:03;98262.31;;;11.76;100.00
21431;BME280;10876;49.038;10.608;2023-04-22T05:23:30;98270.50;;;11.85;100.00
21431;BME280;10876;49.038;10.608;2023-04-22T05:25:57;98289.22;;;11.83;100.00
21431;BME280;10876;49.038;10.608;2023-04-22T05:28:24;98287.97;;;12.60;100.00
21431;BME280;10876;49.038;10.608;2023-04-22T05:30:51;98296.44;;;13.10;100.00
21431;BME280;10876;49.038;10.608;2023-04-22T05:33:18;98290.16;;;13.09;100.00
21431;BME280;10876;49.038;10.608;2023-04-22T05:35:45;98297.03;;;12.82;100.00
21431;BME280;10876;49.038;10.608;2023-04-22T05:38:13;98313.53;;;13.15;100.00
21431;BME280;10876;49.038;10.608;2023-04-22T05:40:40;98316.03;;;12.87;100.00
21431;BME280;10876;49.038;10.608;2023-04-22T05:43:08;98300.53;;;13.03;100.00
21431;BME280;10876;49.038;10.608;2023-04-22T05:45:35;98293.81;;;12.80;100.00
21431;BME280;10876;49.038;10.608;2023-04-22T05:48:02;98299.50;;;12.75;100.00
21431;BME280;10876;49.038;10.608;2023-04-22T05:50:29;98295.28;;;12.56;100.00
21431;BME280;10876;49.038;10.608;2023-04-22T05:52:56;98301.91;;;12.55;100.00
21431;BME280;10876;49.038;10.608;2023-04-22T05:55:24;98311.22;;;12.42;100.00
21431;BME280;10876;49.038;10.608;2023-04-22T05:57:51;98294.03;;;12.24;100.00
21431;BME280;10876;49.038;10.608;2023-04-22T06:00:18;98299.47;;;12.33;100.00
21431;BME280;10876;49.038;10.608;2023-04-22T06:02:45;98284.16;;;12.74;100.00
21431;BME280;10876;49.038;10.608;2023-04-22T06:05:12;98293.84;;;12.92;100.00
21431;BME280;10876;49.038;10.608;2023-04-22T06:07:39;98280.16;;;13.04;100.00
21431;BME280;10876;49.038;10.608;2023-04-22T06:10:07;98245.00;;;12.77;100.00
21431;BME280;10876;49.038;10.608;2023-04-22T06:12:36;98249.91;;;13.04;100.00
21431;BME280;10876;49.038;10.608;2023-04-22T06:15:04;98243.75;;;13.53;100.00
21431;BME280;10876;49.038;10.608;2023-04-22T06:17:31;98228.06;;;13.78;100.00
21431;BME280;10876;49.038;10.608;2023-04-22T06:19:58;98210.75;;;13.78;100.00
21431;BME280;10876;49.038;10.608;2023-04-22T06:22:25;98213.97;;;13.80;100.00
21431;BME280;10876;49.038;10.608;2023-04-22T06:24:52;98206.72;;;14.00;100.00
21431;BME280;10876;49.038;10.608;2023-04-22T06:27:19;98214.06;;;14.60;100.00
21431;BME280;10876;49.038;10.608;2023-04-22T06:29:47;98213.84;;;14.53;100.00
21431;BME280;10876;49.038;10.608;2023-04-22T06:32:14;98204.03;;;14.68;100.00
21431;BME280;10876;49.038;10.608;2023-04-22T06:34:41;98208.69;;;15.08;100.00
21431;BME280;10876;49.038;10.608;2023-04-22T06:37:08;98220.00;;;14.91;100.00
21431;BME280;10876;49.038;10.608;2023-04-22T06:39:35;98230.31;;;14.78;100.00
21431;BME280;10876;49.038;10.608;2023-04-22T06:42:02;98231.19;;;15.10;100.00
21431;BME280;10876;49.038;10.608;2023-04-22T06:44:29;98239.03;;;15.08;100.00
21431;BME280;10876;49.038;10.608;2023-04-22T06:46:58;98252.75;;;15.20;100.00
21431;BME280;10876;49.038;10.608;2023-04-22T06:49:27;98256.00;;;15.10;100.00
21431;BME280;10876;49.038;10.608;2023-04-22T06:51:54;98267.72;;;14.91;100.00
21431;BME280;10876;49.038;10.608;2023-04-22T06:54:21;98288.56;;;15.04;100.00
21431;BME280;10876;49.038;10.608;2023-04-22T06:56:48;98294.88;;;15.05;100.00
21431;BME280;10876;49.038;10.608;2023-04-22T06:59:15;98293.41;;;15.67;100.00
21431;BME280;10876;49.038;10.608;2023-04-22T07:01:41;98308.41;;;15.98;100.00
21431;BME280;10876;49.038;10.608;2023-04-22T07:04:10;98304.41;;;15.95;100.00
21431;BME280;10876;49.038;10.608;2023-04-22T07:06:37;98318.84;;;15.89;100.00
21431;BME280;10876;49.038;10.608;2023-04-22T07:09:04;98333.00;;;16.03;100.00
21431;BME280;10876;49.038;10.608;2023-04-22T07:11:31;98343.69;;;16.20;100.00
21431;BME280;10876;49.038;10.608;2023-04-22T07:13:58;98338.44;;;15.99;100.00
21431;BME280;10876;49.038;10.608;2023-04-22T07:16:25;98348.66;;;16.31;100.00
21431;BME280;10876;49.038;10.608;2023-04-22T07:18:53;98356.00;;;16.90;100.00
21431;BME280;10876;49.038;10.608;2023-04-22T07:21:21;98357.38;;;16.64;100.00
21431;BME280;10876;49.038;10.608;2023-04-22T07:23:48;98353.09;;;16.83;100.00
21431;BME280;10876;49.038;10.608;2023-04-22T07:26:15;98360.69;;;16.54;100.00
21431;BME280;10876;49.038;10.608;2023-04-22T07:28:42;98361.31;;;16.63;100.00
21431;BME280;10876;49.038;10.608;2023-04-22T07:31:08;98358.47;;;16.44;100.00
21431;BME280;10876;49.038;10.608;2023-04-22T07:33:35;98359.56;;;16.24;100.00
21431;BME280;10876;49.038;10.608;2023-04-22T07:36:03;98362.59;;;16.18;100.00
21431;BME280;10876;49.038;10.608;2023-04-22T07:38:31;98362.75;;;16.41;100.00
21431;BME280;10876;49.038;10.608;2023-04-22T07:40:58;98363.56;;;16.26;100.00
21431;BME280;10876;49.038;10.608;2023-04-22T07:43:25;98364.03;;;16.12;100.00
21431;BME280;10876;49.038;10.608;2023-04-22T07:45:52;98364.19;;;16.19;100.00
21431;BME280;10876;49.038;10.608;2023-04-22T07:48:19;98372.84;;;16.18;100.00
21431;BME280;10876;49.038;10.608;2023-04-22T07:50:47;98382.03;;;16.38;100.00
21431;BME280;10876;49.038;10.608;2023-04-22T07:53:14;98376.16;;;16.24;100.00
21431;BME280;10876;49.038;10.608;2023-04-22T07:55:43;98376.94;;;16.24;100.00
21431;BME280;10876;49.038;10.608;2023-04-22T07:58:10;98383.69;;;16.74;100.00
21431;BME280;10876;49.038;10.608;2023-04-22T08:00:37;98380.53;;;16.76;100.00
21431;BME280;10876;49.038;10.608;2023-04-22T08:03:04;98391.34;;;16.81;100.00
21431;BME280;10876;49.038;10.608;2023-04-22T08:05:31;98383.31;;;16.92;100.00
21431;BME280;10876;49.038;10.608;2023-04-22T08:07:58;98390.84;;;17.30;100.00
21431;BME280;10876;49.038;10.608;2023-04-22T08:10:25;98388.94;;;17.53;100.00
21431;BME280;10876;49.038;10.608;2023-04-22T08:12:53;98389.66;;;17.50;100.00
21431;BME280;10876;49.038;10.608;2023-04-22T08:15:21;98390.38;;;17.67;100.00
21431;BME280;10876;49.038;10.608;2023-04-22T08:17:48;98394.78;;;17.48;100.00
21431;BME280;10876;49.038;10.608;2023-04-22T08:20:15;98385.03;;;17.35;100.00
21431;BME280;10876;49.038;10.608;2023-04-22T08:22:42;98390.69;;;17.42;100.00
21431;BME280;10876;49.038;10.608;2023-04-22T08:25:10;98381.34;;;17.70;100.00
21431;BME280;10876;49.038;10.608;2023-04-22T08:27:37;98378.66;;;18.16;100.00
21431;BME280;10876;49.038;10.608;2023-04-22T08:30:06;98373.75;;;18.55;100.00
21431;BME280;10876;49.038;10.608;2023-04-22T08:32:33;98362.13;;;18.73;100.00
21431;BME280;10876;49.038;10.608;2023-04-22T08:35:00;98342.84;;;18.57;100.00
21431;BME280;10876;49.038;10.608;2023-04-22T08:37:28;98333.38;;;18.58;100.00
21431;BME280;10876;49.038;10.608;2023-04-22T08:39:55;98340.63;;;18.93;100.00
21431;BME280;10876;49.038;10.608;2023-04-22T08:42:22;98321.44;;;19.14;100.00
21431;BME280;10876;49.038;10.608;2023-04-22T08:44:49;98314.97;;;19.03;100.00
21431;BME280;10876;49.038;10.608;2023-04-22T08:47:19;98322.88;;;19.01;100.00
21431;BME280;10876;49.038;10.608;2023-04-22T08:49:46;98314.03;;;19.59;100.00
21431;BME280;10876;49.038;10.608;2023-04-22T08:52:14;98304.34;;;19.46;100.00
21431;BME280;10876;49.038;10.608;2023-04-22T08:54:41;98307.59;;;19.51;100.00
21431;BME280;10876;49.038;10.608;2023-04-22T08:57:09;98294.00;;;19.43;100.00
21431;BME280;10876;49.038;10.608;2023-04-22T08:59:36;98290.75;;;20.15;100.00
21431;BME280;10876;49.038;10.608;2023-04-22T09:02:04;98280.88;;;20.25;100.00
21431;BME280;10876;49.038;10.608;2023-04-22T09:04:34;98282.72;;;20.03;100.00
21431;BME280;10876;49.038;10.608;2023-04-22T09:07:01;98281.78;;;19.88;100.00
21431;BME280;10876;49.038;10.608;2023-04-22T09:09:29;98279.63;;;20.15;100.00
21431;BME280;10876;49.038;10.608;2023-04-22T09:11:57;98285.97;;;20.12;100.00
21431;BME280;10876;49.038;10.608;2023-04-22T09:14:24;98272.69;;;20.46;100.00
21431;BME280;10876;49.038;10.608;2023-04-22T09:16:51;98279.84;;;20.47;100.00
21431;BME280;10876;49.038;10.608;2023-04-22T09:19:23;98267.00;;;20.29;100.00
21431;BME280;10876;49.038;10.608;2023-04-22T09:21:56;98285.38;;;20.40;100.00
21431;BME280;10876;49.038;10.608;2023-04-22T09:24:23;98283.69;;;20.29;100.00
21431;BME280;10876;49.038;10.608;2023-04-22T09:26:50;98280.66;;;20.52;100.00
21431;BME280;10876;49.038;10.608;2023-04-22T09:29:33;98277.47;;;20.46;100.00
21431;BME280;10876;49.038;10.608;2023-04-22T09:32:08;98266.72;;;20.52;100.00
21431;BME280;10876;49.038;10.608;2023-04-22T09:34:48;98265.84;;;20.37;100.00
21431;BME280;10876;49.038;10.608;2023-04-22T09:37:19;98259.75;;;20.17;100.00
21431;BME280;10876;49.038;10.608;2023-04-22T09:39:48;98260.81;;;20.53;100.00
21431;BME280;10876;49.038;10.608;2023-04-22T09:42:15;98257.25;;;20.56;100.00
21431;BME280;10876;49.038;10.608;2023-04-22T09:44:43;98252.59;;;20.75;100.00
21431;BME280;10876;49.038;10.608;2023-04-22T09:47:11;98253.09;;;20.95;100.00
21431;BME280;10876;49.038;10.608;2023-04-22T09:49:39;98252.25;;;20.94;100.00
21431;BME280;10876;49.038;10.608;2023-04-22T09:52:06;98242.41;;;21.22;100.00
21431;BME280;10876;49.038;10.608;2023-04-22T09:54:36;98231.19;;;20.93;100.00
21431;BME280;10876;49.038;10.608;2023-04-22T09:57:03;98235.72;;;21.37;100.00
21431;BME280;10876;49.038;10.608;2023-04-22T09:59:30;98236.56;;;21.55;100.00
21431;BME280;10876;49.038;10.608;2023-04-22T10:01:58;98228.59;;;22.04;100.00
21431;BME280;10876;49.038;10.608;2023-04-22T10:04:28;98205.47;;;22.25;100.00
21431;BME280;10876;49.038;10.608;2023-04-22T10:06:55;98203.88;;;21.88;100.00
21431;BME280;10876;49.038;10.608;2023-04-22T10:09:23;98201.88;;;22.17;100.00
21431;BME280;10876;49.038;10.608;2023-04-22T10:11:53;98200.72;;;21.90;100.00
21431;BME280;10876;49.038;10.608;2023-04-22T10:14:23;98200.66;;;21.36;100.00
21431;BME280;10876;49.038;10.608;2023-04-22T10:16:52;98207.50;;;21.78;100.00
21431;BME280;10876;49.038;10.608;2023-04-22T10:19:23;98207.09;;;21.62;100.00
21431;BME280;10876;49.038;10.608;2023-04-22T10:21:53;98207.88;;;21.91;100.00
21431;BME280;10876;49.038;10.608;2023-04-22T10:24:25;98187.97;;;21.56;100.00
21431;BME280;10876;49.038;10.608;2023-04-22T10:26:55;98191.16;;;21.87;100.00
21431;BME280;10876;49.038;10.608;2023-04-22T10:29:24;98188.78;;;21.75;100.00
21431;BME280;10876;49.038;10.608;2023-04-22T10:31:54;98177.59;;;21.71;100.00
21431;BME280;10876;49.038;10.608;2023-04-22T10:34:23;98170.44;;;21.56;100.00
21431;BME280;10876;49.038;10.608;2023-04-22T10:36:54;98182.38;;;21.89;100.00
21431;BME280;10876;49.038;10.608;2023-04-22T10:39:22;98180.81;;;21.80;100.00
21431;BME280;10876;49.038;10.608;2023-04-22T10:42:07;98172.84;;;21.75;100.00
21431;BME280;10876;49.038;10.608;2023-04-22T10:44:47;98195.09;;;21.36;100.00
21431;BME280;10876;49.038;10.608;2023-04-22T10:47:28;98197.34;;;20.91;100.00
21431;BME280;10876;49.038;10.608;2023-04-22T10:50:19;98208.06;;;20.82;100.00
21431;BME280;10876;49.038;10.608;2023-04-22T10:52:49;98204.13;;;20.90;100.00
21431;BME280;10876;49.038;10.608;2023-04-22T10:55:16;98206.06;;;20.79;100.00
21431;BME280;10876;49.038;10.608;2023-04-22T10:57:46;98213.22;;;20.69;100.00
21431;BME280;10876;49.038;10.608;2023-04-22T11:00:47;98196.63;;;21.15;100.00
21431;BME280;10876;49.038;10.608;2023-04-22T11:03:26;98196.63;;;21.19;100.00
21431;BME280;10876;49.038;10.608;2023-04-22T11:06:15;98178.41;;;21.61;100.00
21431;BME280;10876;49.038;10.608;2023-04-22T11:08:46;98166.06;;;21.87;100.00
21431;BME280;10876;49.038;10.608;2023-04-22T11:11:15;98156.91;;;21.62;100.00
21431;BME280;10876;49.038;10.608;2023-04-22T11:13:46;98173.22;;;21.38;100.00
21431;BME280;10876;49.038;10.608;2023-04-22T11:16:15;98163.16;;;20.87;100.00
21431;BME280;10876;49.038;10.608;2023-04-22T11:18:45;98174.91;;;20.48;100.00
21431;BME280;10876;49.038;10.608;2023-04-22T11:21:13;98167.72;;;20.43;100.00
21431;BME280;10876;49.038;10.608;2023-04-22T11:23:48;98191.59;;;20.48;100.00
21431;BME280;10876;49.038;10.608;2023-04-22T11:26:16;98199.59;;;20.57;100.00
21431;BME280;10876;49.038;10.608;2023-04-22T11:28:46;98192.09;;;20.64;100.00
21431;BME280;10876;49.038;10.608;2023-04-22T11:31:13;98201.66;;;20.74;100.00
21431;BME280;10876;49.038;10.608;2023-04-22T11:33:40;98194.88;;;20.68;100.00
21431;BME280;10876;49.038;10.608;2023-04-22T11:36:09;98191.75;;;20.77;100.00
21431;BME280;10876;49.038;10.608;2023-04-22T11:38:37;98185.00;;;20.78;100.00
21431;BME280;10876;49.038;10.608;2023-04-22T11:41:04;98186.22;;;20.87;100.00
21431;BME280;10876;49.038;10.608;2023-04-22T11:43:31;98172.69;;;20.86;100.00
21431;BME280;10876;49.038;10.608;2023-04-22T11:46:00;98169.94;;;20.89;100.00
21431;BME280;10876;49.038;10.608;2023-04-22T11:48:27;98177.50;;;20.96;100.00
21431;BME280;10876;49.038;10.608;2023-04-22T11:51:07;98166.31;;;20.82;100.00
21431;BME280;10876;49.038;10.608;2023-04-22T11:53:35;98153.25;;;21.14;100.00
21431;BME280;10876;49.038;10.608;2023-04-22T11:56:04;98158.44;;;21.20;100.00
21431;BME280;10876;49.038;10.608;2023-04-22T11:58:30;98156.81;;;21.11;100.00
21431;BME280;10876;49.038;10.608;2023-04-22T12:00:59;98145.28;;;21.02;100.00
21431;BME280;10876;49.038;10.608;2023-04-22T12:03:27;98144.50;;;21.20;100.00
21431;BME280;10876;49.038;10.608;2023-04-22T12:05:58;98146.56;;;21.41;100.00
21431;BME280;10876;49.038;10.608;2023-04-22T12:08:30;98130.97;;;21.14;100.00
21431;BME280;10876;49.038;10.608;2023-04-22T12:10:59;98125.38;;;21.11;100.00
21431;BME280;10876;49.038;10.608;2023-04-22T12:13:28;98127.41;;;21.25;100.00
21431;BME280;10876;49.038;10.608;2023-04-22T12:15:57;98112.69;;;21.35;100.00
21431;BME280;10876;49.038;10.608;2023-04-22T12:18:29;98101.97;;;21.48;100.00
21431;BME280;10876;49.038;10.608;2023-04-22T12:20:58;98095.56;;;21.69;100.00
21431;BME280;10876;49.038;10.608;2023-04-22T12:23:25;98083.59;;;21.72;100.00
21431;BME280;10876;49.038;10.608;2023-04-22T12:25:52;98079.19;;;21.92;100.00
21431;BME280;10876;49.038;10.608;2023-04-22T12:28:20;98069.97;;;22.02;100.00
21431;BME280;10876;49.038;10.608;2023-04-22T12:30:46;98075.50;;;22.17;100.00
21431;BME280;10876;49.038;10.608;2023-04-22T12:33:13;98055.25;;;22.02;100.00
21431;BME280;10876;49.038;10.608;2023-04-22T12:35:42;98037.34;;;21.92;100.00
21431;BME280;10876;49.038;10.608;2023-04-22T12:38:11;98042.03;;;22.17;100.00
21431;BME280;10876;49.038;10.608;2023-04-22T12:40:38;98067.19;;;22.10;100.00
21431;BME280;10876;49.038;10.608;2023-04-22T12:43:05;98041.19;;;22.34;100.00
21431;BME280;10876;49.038;10.608;2023-04-22T12:45:32;98056.22;;;22.55;100.00
21431;BME280;10876;49.038;10.608;2023-04-22T12:47:59;98028.91;;;22.17;100.00
21431;BME280;10876;49.038;10.608;2023-04-22T12:50:26;98065.16;;;22.14;100.00
21431;BME280;10876;49.038;10.608;2023-04-22T12:52:55;98052.47;;;21.98;100.00
21431;BME280;10876;49.038;10.608;2023-04-22T12:55:22;98045.38;;;21.72;100.00
21431;BME280;10876;49.038;10.608;2023-04-22T12:57:49;98031.81;;;21.78;100.00
21431;BME280;10876;49.038;10.608;2023-04-22T13:00:17;98026.63;;;21.87;100.00
21431;BME280;10876;49.038;10.608;2023-04-22T13:02:46;98048.47;;;22.07;100.00
21431;BME280;10876;49.038;10.608;2023-04-22T13:05:16;98047.59;;;22.17;100.00